createdAt,value
2017-08-31T00:00:14.816Z,58.94
2017-08-31T00:00:55.411Z,58.75
2017-08-31T00:01:36.028Z,58.55
2017-08-31T00:02:16.591Z,58.65
2017-08-31T00:02:57.156Z,58.65
2017-08-31T00:03:37.724Z,58.75
2017-08-31T00:04:18.294Z,58.55
2017-08-31T00:04:58.907Z,58.55
2017-08-31T00:05:39.494Z,58.45
2017-08-31T00:06:20.068Z,58.36
2017-08-31T00:07:00.639Z,58.26
2017-08-31T00:07:41.218Z,58.36
2017-08-31T00:08:21.793Z,57.78
2017-08-31T00:09:02.408Z,58.26
2017-08-31T00:09:42.983Z,57.78
2017-08-31T00:10:23.566Z,58.17
2017-08-31T00:11:04.158Z,58.17
2017-08-31T00:11:44.713Z,58.45
2017-08-31T00:12:25.288Z,58.36
2017-08-31T00:13:05.868Z,58.26
2017-08-31T00:13:46.444Z,58.36
2017-08-31T00:14:27.012Z,58.36
2017-08-31T00:15:07.606Z,58.36
2017-08-31T00:15:48.191Z,57.97
2017-08-31T00:16:28.784Z,58.07
2017-08-31T00:17:09.369Z,57.97
2017-08-31T00:17:49.942Z,57.97
2017-08-31T00:18:30.521Z,57.97
2017-08-31T00:19:11.099Z,58.17
2017-08-31T00:19:51.684Z,58.26
2017-08-31T00:20:32.263Z,58.07
2017-08-31T00:21:12.833Z,58.17
2017-08-31T00:21:53.413Z,58.45
2017-08-31T00:22:33.999Z,58.26
2017-08-31T00:23:14.561Z,58.17
2017-08-31T00:23:55.131Z,58.07
2017-08-31T00:24:35.708Z,58.17
2017-08-31T00:25:16.273Z,58.45
2017-08-31T00:25:56.854Z,58.65
2017-08-31T00:26:37.452Z,58.36
2017-08-31T00:27:18.035Z,58.36
2017-08-31T00:27:58.615Z,58.17
2017-08-31T00:28:39.198Z,58.17
2017-08-31T00:29:19.785Z,58.65
2017-08-31T00:30:00.366Z,58.65
2017-08-31T00:30:40.959Z,59.03
2017-08-31T00:31:21.542Z,58.94
2017-08-31T00:32:02.107Z,58.75
2017-08-31T00:32:42.674Z,58.84
2017-08-31T00:33:23.260Z,58.55
2017-08-31T00:34:03.836Z,58.84
2017-08-31T00:34:44.418Z,58.75
2017-08-31T00:35:24.991Z,58.55
2017-08-31T00:36:05.603Z,58.55
2017-08-31T00:36:46.193Z,58.45
2017-08-31T00:37:26.784Z,58.94
2017-08-31T00:38:07.365Z,58.75
2017-08-31T00:38:47.956Z,58.65
2017-08-31T00:39:28.522Z,58.17
2017-08-31T00:40:09.094Z,58.45
2017-08-31T00:40:49.658Z,58.45
2017-08-31T00:41:30.256Z,58.45
2017-08-31T00:42:10.836Z,58.65
2017-08-31T00:42:51.411Z,58.65
2017-08-31T00:43:31.990Z,58.65
2017-08-31T00:44:12.562Z,58.65
2017-08-31T00:44:53.147Z,58.55
2017-08-31T00:45:33.711Z,58.65
2017-08-31T00:46:14.291Z,58.84
2017-08-31T00:46:54.901Z,58.84
2017-08-31T00:47:35.489Z,58.84
2017-08-31T00:48:16.089Z,58.36
2017-08-31T00:48:56.669Z,58.84
2017-08-31T00:49:37.244Z,58.75
2017-08-31T00:50:17.814Z,58.94
2017-08-31T00:50:58.389Z,59.13
2017-08-31T00:51:38.948Z,58.55
2017-08-31T00:52:19.528Z,58.55
2017-08-31T00:53:00.112Z,59.03
2017-08-31T00:53:40.698Z,58.45
2017-08-31T00:54:21.254Z,58.84
2017-08-31T00:55:01.823Z,58.55
2017-08-31T00:55:42.406Z,58.65
2017-08-31T00:56:22.983Z,58.55
2017-08-31T00:57:03.558Z,58.36
2017-08-31T00:57:44.131Z,58.17
2017-08-31T00:58:24.707Z,58.26
2017-08-31T00:59:05.298Z,58.17
2017-08-31T00:59:45.878Z,58.65
2017-08-31T01:00:26.464Z,58.65
2017-08-31T01:01:07.059Z,58.84
2017-08-31T01:01:47.641Z,58.65
2017-08-31T01:02:28.218Z,58.84
2017-08-31T01:03:08.795Z,58.45
2017-08-31T01:03:49.370Z,58.36
2017-08-31T01:04:29.945Z,58.55
2017-08-31T01:05:10.514Z,58.26
2017-08-31T01:05:51.097Z,58.36
2017-08-31T01:06:31.677Z,58.17
2017-08-31T01:07:12.273Z,57.87
2017-08-31T01:07:52.859Z,58.45
2017-08-31T01:08:33.434Z,57.87
2017-08-31T01:09:14.013Z,57.59
2017-08-31T01:09:54.583Z,58.17
2017-08-31T01:10:35.177Z,58.36
2017-08-31T01:11:15.789Z,58.26
2017-08-31T01:11:56.365Z,58.17
2017-08-31T01:12:36.935Z,58.07
2017-08-31T01:13:17.519Z,57.78
2017-08-31T01:13:58.094Z,57.68
2017-08-31T01:14:38.667Z,57.87
2017-08-31T01:15:19.232Z,58.17
2017-08-31T01:15:59.828Z,57.78
2017-08-31T01:16:40.423Z,57.78
2017-08-31T01:17:21.018Z,57.68
2017-08-31T01:18:01.580Z,57.87
2017-08-31T01:18:42.149Z,58.07
2017-08-31T01:19:22.742Z,57.68
2017-08-31T01:20:03.329Z,57.59
2017-08-31T01:20:43.914Z,57.68
2017-08-31T01:21:24.499Z,57.39
2017-08-31T01:22:05.065Z,57.59
2017-08-31T01:22:45.649Z,57.59
2017-08-31T01:23:26.216Z,57.52
2017-08-31T01:24:06.797Z,57.68
2017-08-31T01:24:47.374Z,57.49
2017-08-31T01:25:27.966Z,57.59
2017-08-31T01:26:08.554Z,57.68
2017-08-31T01:26:49.110Z,57.52
2017-08-31T01:27:29.677Z,57.49
2017-08-31T01:28:10.266Z,57.62
2017-08-31T01:28:50.869Z,57.52
2017-08-31T01:29:31.443Z,57.59
2017-08-31T01:30:12.018Z,57.52
2017-08-31T01:30:52.582Z,57.39
2017-08-31T01:31:33.169Z,58
2017-08-31T01:32:13.746Z,57.87
2017-08-31T01:32:54.322Z,58.07
2017-08-31T01:33:34.899Z,57.78
2017-08-31T01:34:15.485Z,57.78
2017-08-31T01:34:56.057Z,57.71
2017-08-31T01:35:36.619Z,57.9
2017-08-31T01:36:17.187Z,58.07
2017-08-31T01:36:57.777Z,58.26
2017-08-31T01:37:38.383Z,58.29
2017-08-31T01:38:18.971Z,58.17
2017-08-31T01:38:59.537Z,58.26
2017-08-31T01:39:40.124Z,58.45
2017-08-31T01:40:20.691Z,58.26
2017-08-31T01:41:01.278Z,58.55
2017-08-31T01:41:41.845Z,58.75
2017-08-31T01:42:22.457Z,58.75
2017-08-31T01:43:03.039Z,58.75
2017-08-31T01:43:43.603Z,58.58
2017-08-31T01:44:24.167Z,58.55
2017-08-31T01:45:04.756Z,58.65
2017-08-31T01:45:45.316Z,58.45
2017-08-31T01:46:25.934Z,58.65
2017-08-31T01:47:06.519Z,58.75
2017-08-31T01:47:47.103Z,58.84
2017-08-31T01:48:27.673Z,59.03
2017-08-31T01:49:08.234Z,58.75
2017-08-31T01:49:48.813Z,59.03
2017-08-31T01:50:29.419Z,58.65
2017-08-31T01:51:09.999Z,58.65
2017-08-31T01:51:50.594Z,58.55
2017-08-31T01:52:31.185Z,58.65
2017-08-31T01:53:11.767Z,59.03
2017-08-31T01:53:52.348Z,58.84
2017-08-31T01:54:32.929Z,59.03
2017-08-31T01:55:13.562Z,58.94
2017-08-31T01:55:54.155Z,58.84
2017-08-31T01:56:34.723Z,58.84
2017-08-31T01:57:15.308Z,59.23
2017-08-31T01:57:55.860Z,59.42
2017-08-31T01:58:36.451Z,59.42
2017-08-31T01:59:17.023Z,59.52
2017-08-31T01:59:57.605Z,59.52
2017-08-31T02:00:38.191Z,59.32
2017-08-31T02:01:18.756Z,59.32
2017-08-31T02:01:59.384Z,59.52
2017-08-31T02:02:39.963Z,59.8
2017-08-31T02:03:20.561Z,59.61
2017-08-31T02:04:01.176Z,59.61
2017-08-31T02:04:41.731Z,60
2017-08-31T02:05:22.307Z,59.9
2017-08-31T02:06:02.885Z,60
2017-08-31T02:06:43.458Z,60.28
2017-08-31T02:07:24.024Z,60.1
2017-08-31T02:08:04.649Z,59.9
2017-08-31T02:08:45.219Z,59.9
2017-08-31T02:09:25.799Z,60.28
2017-08-31T02:10:06.356Z,60.68
2017-08-31T02:10:46.994Z,60.96
2017-08-31T02:11:27.561Z,60.96
2017-08-31T02:12:08.144Z,60.77
2017-08-31T02:12:48.713Z,60.86
2017-08-31T02:13:29.286Z,60.86
2017-08-31T02:14:09.849Z,60.77
2017-08-31T02:14:50.414Z,61.44
2017-08-31T02:15:30.987Z,61.06
2017-08-31T02:16:11.568Z,61.35
2017-08-31T02:16:52.147Z,61.74
2017-08-31T02:17:32.704Z,61.54
2017-08-31T02:18:13.277Z,61.74
2017-08-31T02:18:53.843Z,61.93
2017-08-31T02:19:34.419Z,61.74
2017-08-31T02:20:14.999Z,61.64
2017-08-31T02:20:55.641Z,61.64
2017-08-31T02:21:36.210Z,61.44
2017-08-31T02:22:16.787Z,61.64
2017-08-31T02:22:57.361Z,61.74
2017-08-31T02:23:37.976Z,62.22
2017-08-31T02:24:18.543Z,62.12
2017-08-31T02:24:59.116Z,62.02
2017-08-31T02:25:39.733Z,62.51
2017-08-31T02:26:20.318Z,62.02
2017-08-31T02:27:00.921Z,62.41
2017-08-31T02:27:41.485Z,62.51
2017-08-31T02:28:22.059Z,62.41
2017-08-31T02:29:02.692Z,62.79
2017-08-31T02:29:43.246Z,62.79
2017-08-31T02:30:23.841Z,62.7
2017-08-31T02:31:04.416Z,62.79
2017-08-31T02:31:44.986Z,62.79
2017-08-31T02:32:25.576Z,62.99
2017-08-31T02:33:06.175Z,62.89
2017-08-31T02:33:46.743Z,62.7
2017-08-31T02:34:27.326Z,62.79
2017-08-31T02:35:07.913Z,62.79
2017-08-31T02:35:48.485Z,62.99
2017-08-31T02:36:29.043Z,62.79
2017-08-31T02:37:09.674Z,62.7
2017-08-31T02:37:50.245Z,62.89
2017-08-31T02:38:30.829Z,62.79
2017-08-31T02:39:11.404Z,62.7
2017-08-31T02:39:52.004Z,62.7
2017-08-31T02:40:32.587Z,62.89
2017-08-31T02:41:13.158Z,62.7
2017-08-31T02:41:53.719Z,62.7
2017-08-31T02:42:34.312Z,62.7
2017-08-31T02:43:14.870Z,63.09
2017-08-31T02:43:55.447Z,62.79
2017-08-31T02:44:36.016Z,62.99
2017-08-31T02:45:16.606Z,62.99
2017-08-31T02:45:57.197Z,62.99
2017-08-31T02:46:37.812Z,63.37
2017-08-31T02:47:18.403Z,63.09
2017-08-31T02:47:59.109Z,63.09
2017-08-31T02:48:39.703Z,63.09
2017-08-31T02:49:20.280Z,63.09
2017-08-31T02:50:00.862Z,63.18
2017-08-31T02:50:41.419Z,63.47
2017-08-31T02:51:22.023Z,63.28
2017-08-31T02:52:02.611Z,63.28
2017-08-31T02:52:43.212Z,63.28
2017-08-31T02:53:23.785Z,63.47
2017-08-31T02:54:04.348Z,63.37
2017-08-31T02:54:44.984Z,63.37
2017-08-31T02:55:25.575Z,63.47
2017-08-31T02:56:06.166Z,63.47
2017-08-31T02:56:46.738Z,63.37
2017-08-31T02:57:27.372Z,63.28
2017-08-31T02:58:08.001Z,63.18
2017-08-31T02:58:48.600Z,63.09
2017-08-31T02:59:29.183Z,63.57
2017-08-31T03:00:09.778Z,63.76
2017-08-31T03:00:50.357Z,63.67
2017-08-31T03:01:30.928Z,63.76
2017-08-31T03:02:11.508Z,63.85
2017-08-31T03:02:52.068Z,63.67
2017-08-31T03:03:32.637Z,63.67
2017-08-31T03:04:13.209Z,63.67
2017-08-31T03:04:53.779Z,63.28
2017-08-31T03:05:34.359Z,63.37
2017-08-31T03:06:14.951Z,63.57
2017-08-31T03:06:55.492Z,63.76
2017-08-31T03:07:36.062Z,63.67
2017-08-31T03:08:16.645Z,64.05
2017-08-31T03:08:57.218Z,63.85
2017-08-31T03:09:37.783Z,63.67
2017-08-31T03:10:18.348Z,63.85
2017-08-31T03:10:58.927Z,63.57
2017-08-31T03:11:39.542Z,64.24
2017-08-31T03:12:20.109Z,64.24
2017-08-31T03:13:00.681Z,64.15
2017-08-31T03:13:41.261Z,64.63
2017-08-31T03:14:21.871Z,64.43
2017-08-31T03:15:02.449Z,64.43
2017-08-31T03:15:43.043Z,64.43
2017-08-31T03:16:23.630Z,64.82
2017-08-31T03:17:04.200Z,64.92
2017-08-31T03:17:44.774Z,64.63
2017-08-31T03:18:25.355Z,64.43
2017-08-31T03:19:05.921Z,64.63
2017-08-31T03:19:46.565Z,64.72
2017-08-31T03:20:27.162Z,64.63
2017-08-31T03:21:07.746Z,64.82
2017-08-31T03:21:48.340Z,64.92
2017-08-31T03:22:28.959Z,64.82
2017-08-31T03:23:09.549Z,64.92
2017-08-31T03:23:50.112Z,65.4
2017-08-31T03:24:30.691Z,64.92
2017-08-31T03:25:11.279Z,65.2
2017-08-31T03:25:51.850Z,65.4
2017-08-31T03:26:32.416Z,65.5
2017-08-31T03:27:12.999Z,65.5
2017-08-31T03:27:53.554Z,65.3
2017-08-31T03:28:34.131Z,65.5
2017-08-31T03:29:14.696Z,65.5
2017-08-31T03:29:55.322Z,65.3
2017-08-31T03:30:35.903Z,65.78
2017-08-31T03:31:16.500Z,65.88
2017-08-31T03:31:57.081Z,65.69
2017-08-31T03:32:37.678Z,65.59
2017-08-31T03:33:18.261Z,65.59
2017-08-31T03:33:58.838Z,65.98
2017-08-31T03:34:39.445Z,65.98
2017-08-31T03:35:20.048Z,66.08
2017-08-31T03:36:00.681Z,65.98
2017-08-31T03:36:41.253Z,66.17
2017-08-31T03:37:21.866Z,66.56
2017-08-31T03:38:02.440Z,66.36
2017-08-31T03:38:43.029Z,66.46
2017-08-31T03:39:23.611Z,66.46
2017-08-31T03:40:04.203Z,66.66
2017-08-31T03:40:44.796Z,66.85
2017-08-31T03:41:25.421Z,66.85
2017-08-31T03:42:06.004Z,66.94
2017-08-31T03:42:46.586Z,66.85
2017-08-31T03:43:27.137Z,66.66
2017-08-31T03:44:07.736Z,66.66
2017-08-31T03:44:48.352Z,66.66
2017-08-31T03:45:28.937Z,66.94
2017-08-31T03:46:09.520Z,66.27
2017-08-31T03:46:50.135Z,66.85
2017-08-31T03:47:30.723Z,66.94
2017-08-31T03:48:11.302Z,67.04
2017-08-31T03:48:51.916Z,67.04
2017-08-31T03:49:32.487Z,67.23
2017-08-31T03:50:13.057Z,67.43
2017-08-31T03:50:53.673Z,67.14
2017-08-31T03:51:34.248Z,67.14
2017-08-31T03:52:14.834Z,67.33
2017-08-31T03:52:55.455Z,66.94
2017-08-31T03:53:36.020Z,67.23
2017-08-31T03:54:16.598Z,67.23
2017-08-31T03:54:57.179Z,67.71
2017-08-31T03:55:37.752Z,67.62
2017-08-31T03:56:18.334Z,67.81
2017-08-31T03:56:58.897Z,67.91
2017-08-31T03:57:39.472Z,67.91
2017-08-31T03:58:20.052Z,67.81
2017-08-31T03:59:00.611Z,68.01
2017-08-31T03:59:41.185Z,67.91
2017-08-31T04:00:21.811Z,68.1
2017-08-31T04:01:02.388Z,68.1
2017-08-31T04:01:42.978Z,68.1
2017-08-31T04:02:23.571Z,68.59
2017-08-31T04:03:04.134Z,68.59
2017-08-31T04:03:44.708Z,68.59
2017-08-31T04:04:25.286Z,68.68
2017-08-31T04:05:05.868Z,68.77
2017-08-31T04:05:46.446Z,68.49
2017-08-31T04:06:27.006Z,69.16
2017-08-31T04:07:07.574Z,68.97
2017-08-31T04:07:48.147Z,69.07
2017-08-31T04:08:28.723Z,69.45
2017-08-31T04:09:09.310Z,69.64
2017-08-31T04:09:49.906Z,69.35
2017-08-31T04:10:30.514Z,69.74
2017-08-31T04:11:11.100Z,69.45
2017-08-31T04:11:51.677Z,69.64
2017-08-31T04:12:32.260Z,69.84
2017-08-31T04:13:12.848Z,69.64
2017-08-31T04:13:53.430Z,69.55
2017-08-31T04:14:34.034Z,69.84
2017-08-31T04:15:14.640Z,69.74
2017-08-31T04:15:55.192Z,69.84
2017-08-31T04:16:35.768Z,70.13
2017-08-31T04:17:16.353Z,69.93
2017-08-31T04:17:56.930Z,70.32
2017-08-31T04:18:37.489Z,70.22
2017-08-31T04:19:18.072Z,70.61
2017-08-31T04:19:58.701Z,70.7
2017-08-31T04:20:39.292Z,70.51
2017-08-31T04:21:19.866Z,70.61
2017-08-31T04:22:00.451Z,71.09
2017-08-31T04:22:41.011Z,70.9
2017-08-31T04:23:21.581Z,70.7
2017-08-31T04:24:02.156Z,70.9
2017-08-31T04:24:42.745Z,71.19
2017-08-31T04:25:23.347Z,71.25
2017-08-31T04:26:03.921Z,71.09
2017-08-31T04:26:44.502Z,71.58
2017-08-31T04:27:25.095Z,71.58
2017-08-31T04:28:05.686Z,71.58
2017-08-31T04:28:46.333Z,71.34
2017-08-31T04:29:26.913Z,71.73
2017-08-31T04:30:07.498Z,71.67
2017-08-31T04:30:48.056Z,72.06
2017-08-31T04:31:28.622Z,72.25
2017-08-31T04:32:09.194Z,71.86
2017-08-31T04:32:49.766Z,72.63
2017-08-31T04:33:30.336Z,72.25
2017-08-31T04:34:10.903Z,72.34
2017-08-31T04:34:51.509Z,72.63
2017-08-31T04:35:32.079Z,72.41
2017-08-31T04:36:12.677Z,72.83
2017-08-31T04:36:53.264Z,72.69
2017-08-31T04:37:33.845Z,73.11
2017-08-31T04:38:14.449Z,72.92
2017-08-31T04:38:55.034Z,73.08
2017-08-31T04:39:35.592Z,72.79
2017-08-31T04:40:16.185Z,73.21
2017-08-31T04:40:56.776Z,73.47
2017-08-31T04:41:37.384Z,73.27
2017-08-31T04:42:17.956Z,73.47
2017-08-31T04:42:58.533Z,73.75
2017-08-31T04:43:39.109Z,73.57
2017-08-31T04:44:19.678Z,73.47
2017-08-31T04:45:00.269Z,73.18
2017-08-31T04:45:40.837Z,73.27
2017-08-31T04:46:21.414Z,73.75
2017-08-31T04:47:01.993Z,73.47
2017-08-31T04:47:42.582Z,73.75
2017-08-31T04:48:23.159Z,73.66
2017-08-31T04:49:03.736Z,73.85
2017-08-31T04:49:44.321Z,73.85
2017-08-31T04:50:24.908Z,74.08
2017-08-31T04:51:05.503Z,74.52
2017-08-31T04:51:46.079Z,74.91
2017-08-31T04:52:26.655Z,74.91
2017-08-31T04:53:07.245Z,74.82
2017-08-31T04:53:47.836Z,74.52
2017-08-31T04:54:28.420Z,74.82
2017-08-31T04:55:09.031Z,74.33
2017-08-31T04:55:49.606Z,74.82
2017-08-31T04:56:30.188Z,75.01
2017-08-31T04:57:10.754Z,74.91
2017-08-31T04:57:51.321Z,74.91
2017-08-31T04:58:31.891Z,74.91
2017-08-31T04:59:12.475Z,74.62
2017-08-31T04:59:53.063Z,75.1
2017-08-31T05:00:33.646Z,75.49
2017-08-31T05:01:14.217Z,75.3
2017-08-31T05:01:54.780Z,75.3
2017-08-31T05:02:35.352Z,75.4
2017-08-31T05:03:15.960Z,75.68
2017-08-31T05:03:56.534Z,75.78
2017-08-31T05:04:37.107Z,75.49
2017-08-31T05:05:17.674Z,75.68
2017-08-31T05:05:58.263Z,75.59
2017-08-31T05:06:38.845Z,75.59
2017-08-31T05:07:19.441Z,76.07
2017-08-31T05:08:00.060Z,76.17
2017-08-31T05:08:40.659Z,76.26
2017-08-31T05:09:21.233Z,75.97
2017-08-31T05:10:01.798Z,76.55
2017-08-31T05:10:42.380Z,75.88
2017-08-31T05:11:22.994Z,76.4
2017-08-31T05:12:03.565Z,76.75
2017-08-31T05:12:44.124Z,76.84
2017-08-31T05:13:24.690Z,76.75
2017-08-31T05:14:05.279Z,76.45
2017-08-31T05:14:45.855Z,76.55
2017-08-31T05:15:26.452Z,76.65
2017-08-31T05:16:07.031Z,77.13
2017-08-31T05:16:47.630Z,77.23
2017-08-31T05:17:28.211Z,76.93
2017-08-31T05:18:08.796Z,76.93
2017-08-31T05:18:49.381Z,77.23
2017-08-31T05:19:29.965Z,77.23
2017-08-31T05:20:10.540Z,77.33
2017-08-31T05:20:51.119Z,77.33
2017-08-31T05:21:31.693Z,77.71
2017-08-31T05:22:12.262Z,77.71
2017-08-31T05:22:52.847Z,77.61
2017-08-31T05:23:33.415Z,77.81
2017-08-31T05:24:14.013Z,78.03
2017-08-31T05:24:54.587Z,78.09
2017-08-31T05:25:35.166Z,77.71
2017-08-31T05:26:15.742Z,78
2017-08-31T05:26:56.327Z,78.67
2017-08-31T05:27:36.908Z,78.09
2017-08-31T05:28:17.507Z,78.42
2017-08-31T05:28:58.069Z,78.38
2017-08-31T05:29:38.654Z,78.48
2017-08-31T05:30:19.250Z,78.19
2017-08-31T05:30:59.833Z,78.96
2017-08-31T05:31:40.402Z,79.16
2017-08-31T05:32:21.013Z,78.96
2017-08-31T05:33:01.617Z,78.67
2017-08-31T05:33:42.153Z,79.29
2017-08-31T05:34:22.763Z,79.16
2017-08-31T05:35:03.338Z,79.25
2017-08-31T05:35:43.908Z,79.16
2017-08-31T05:36:24.497Z,79.74
2017-08-31T05:37:05.085Z,79.77
2017-08-31T05:37:45.678Z,79.74
2017-08-31T05:38:26.247Z,80.12
2017-08-31T05:39:06.822Z,80.31
2017-08-31T05:39:47.394Z,80.22
2017-08-31T05:40:27.974Z,80.06
2017-08-31T05:41:08.563Z,80.45
2017-08-31T05:41:49.129Z,80.22
2017-08-31T05:42:29.720Z,80.31
2017-08-31T05:43:10.311Z,80.41
2017-08-31T05:43:50.877Z,80.54
2017-08-31T05:44:31.546Z,80.79
2017-08-31T05:45:12.133Z,80.41
2017-08-31T05:45:52.700Z,80.89
2017-08-31T05:46:33.277Z,80.64
2017-08-31T05:47:13.867Z,80.93
2017-08-31T05:47:54.439Z,80.54
2017-08-31T05:48:35.045Z,80.54
2017-08-31T05:49:15.626Z,81.22
2017-08-31T05:49:56.195Z,80.93
2017-08-31T05:50:36.770Z,81.51
2017-08-31T05:51:17.348Z,81.41
2017-08-31T05:51:57.926Z,81.41
2017-08-31T05:52:38.538Z,81.51
2017-08-31T05:53:19.076Z,81.18
2017-08-31T05:53:59.656Z,81.7
2017-08-31T05:54:40.231Z,81.51
2017-08-31T05:55:20.806Z,81.6
2017-08-31T05:56:01.383Z,81.8
2017-08-31T05:56:41.940Z,81.51
2017-08-31T05:57:22.530Z,81.41
2017-08-31T05:58:03.101Z,81.51
2017-08-31T05:58:43.682Z,81.51
2017-08-31T05:59:24.248Z,81.22
2017-08-31T06:00:04.843Z,81.41
2017-08-31T06:00:45.413Z,81.51
2017-08-31T06:01:25.980Z,81.41
2017-08-31T06:02:06.578Z,81.6
2017-08-31T06:02:47.166Z,81.8
2017-08-31T06:03:27.747Z,81.51
2017-08-31T06:04:08.375Z,81.9
2017-08-31T06:04:48.931Z,81.6
2017-08-31T06:05:29.530Z,81.51
2017-08-31T06:06:10.130Z,81.51
2017-08-31T06:06:50.724Z,81.6
2017-08-31T06:07:31.289Z,81.32
2017-08-31T06:08:11.880Z,81.8
2017-08-31T06:08:52.457Z,81.7
2017-08-31T06:09:33.042Z,81.51
2017-08-31T06:10:13.636Z,81.32
2017-08-31T06:10:54.197Z,82.28
2017-08-31T06:11:34.762Z,81.6
2017-08-31T06:12:15.329Z,81.6
2017-08-31T06:12:55.909Z,81.99
2017-08-31T06:13:36.494Z,81.9
2017-08-31T06:14:17.071Z,82.48
2017-08-31T06:14:57.678Z,82.18
2017-08-31T06:15:38.281Z,82.28
2017-08-31T06:16:18.875Z,82.09
2017-08-31T06:16:59.449Z,82.09
2017-08-31T06:17:40.034Z,81.9
2017-08-31T06:18:20.646Z,82.09
2017-08-31T06:19:01.238Z,82.28
2017-08-31T06:19:41.801Z,82.28
2017-08-31T06:20:22.398Z,82.48
2017-08-31T06:21:02.997Z,82.28
2017-08-31T06:21:43.561Z,82.28
2017-08-31T06:22:24.115Z,82.18
2017-08-31T06:23:04.688Z,82.38
2017-08-31T06:23:45.261Z,82.18
2017-08-31T06:24:25.849Z,82.13
2017-08-31T06:25:06.439Z,82.42
2017-08-31T06:25:47.048Z,82.32
2017-08-31T06:26:27.613Z,82.23
2017-08-31T06:27:08.204Z,82.42
2017-08-31T06:27:48.787Z,81.65
2017-08-31T06:28:29.366Z,81.45
2017-08-31T06:29:09.965Z,81.65
2017-08-31T06:29:50.552Z,81.55
2017-08-31T06:30:31.179Z,81.26
2017-08-31T06:31:11.755Z,80.82
2017-08-31T06:31:52.372Z,80.72
2017-08-31T06:32:32.931Z,80.33
2017-08-31T06:33:13.525Z,80.62
2017-08-31T06:33:54.136Z,80.24
2017-08-31T06:34:34.737Z,79.85
2017-08-31T06:35:15.312Z,80.14
2017-08-31T06:35:55.890Z,80.24
2017-08-31T06:36:36.469Z,79.66
2017-08-31T06:37:17.042Z,79.66
2017-08-31T06:37:57.680Z,79.66
2017-08-31T06:38:38.251Z,79.66
2017-08-31T06:39:18.813Z,79.95
2017-08-31T06:39:59.427Z,79.7
2017-08-31T06:40:40.025Z,79.66
2017-08-31T06:41:20.642Z,79.89
2017-08-31T06:42:01.224Z,79.7
2017-08-31T06:42:41.853Z,79.31
2017-08-31T06:43:22.427Z,79.02
2017-08-31T06:44:02.998Z,79.22
2017-08-31T06:44:43.580Z,78.44
2017-08-31T06:45:24.175Z,78.44
2017-08-31T06:46:04.758Z,78.34
2017-08-31T06:46:45.335Z,78.09
2017-08-31T06:47:25.935Z,78
2017-08-31T06:48:06.529Z,77.96
2017-08-31T06:48:47.107Z,78.15
2017-08-31T06:49:27.681Z,78.19
2017-08-31T06:50:08.323Z,77.96
2017-08-31T06:50:48.857Z,78.25
2017-08-31T06:51:29.457Z,78.15
2017-08-31T06:52:10.048Z,78.34
2017-08-31T06:52:50.625Z,78.54
2017-08-31T06:53:31.241Z,78.83
2017-08-31T06:54:11.820Z,77.96
2017-08-31T06:54:52.411Z,78.25
2017-08-31T06:55:33.018Z,78.19
2017-08-31T06:56:13.588Z,77.71
2017-08-31T06:56:54.179Z,77.8
2017-08-31T06:57:34.753Z,78.09
2017-08-31T06:58:15.334Z,77.51
2017-08-31T06:58:55.919Z,77.26
2017-08-31T06:59:36.493Z,76.87
2017-08-31T07:00:17.062Z,77.36
2017-08-31T07:00:57.632Z,76.39
2017-08-31T07:01:38.223Z,76.04
2017-08-31T07:02:18.798Z,75.56
2017-08-31T07:02:59.385Z,75.46
2017-08-31T07:03:39.951Z,75.17
2017-08-31T07:04:20.536Z,74.79
2017-08-31T07:05:01.115Z,75.07
2017-08-31T07:05:41.695Z,75.07
2017-08-31T07:06:22.270Z,75.27
2017-08-31T07:07:02.879Z,74.21
2017-08-31T07:07:43.467Z,73.91
2017-08-31T07:08:24.060Z,74.01
2017-08-31T07:09:04.636Z,73.66
2017-08-31T07:09:45.205Z,73.72
2017-08-31T07:10:25.809Z,73.57
2017-08-31T07:11:06.400Z,73.57
2017-08-31T07:11:47.030Z,73.08
2017-08-31T07:12:27.574Z,73.27
2017-08-31T07:13:08.153Z,73.57
2017-08-31T07:13:48.725Z,73.27
2017-08-31T07:14:29.312Z,72.63
2017-08-31T07:15:09.887Z,72.24
2017-08-31T07:15:50.461Z,72.24
2017-08-31T07:16:31.060Z,71.86
2017-08-31T07:17:11.652Z,71.47
2017-08-31T07:17:52.241Z,71.18
2017-08-31T07:18:32.799Z,70.79
2017-08-31T07:19:13.365Z,70.79
2017-08-31T07:19:53.959Z,70.34
2017-08-31T07:20:34.541Z,69.85
2017-08-31T07:21:15.133Z,69.95
2017-08-31T07:21:55.744Z,69.95
2017-08-31T07:22:36.332Z,69.85
2017-08-31T07:23:16.923Z,70.09
2017-08-31T07:23:57.527Z,70.18
2017-08-31T07:24:38.112Z,69.5
2017-08-31T07:25:18.709Z,69.21
2017-08-31T07:25:59.275Z,69.12
2017-08-31T07:26:39.852Z,68.37
2017-08-31T07:27:20.424Z,68.08
2017-08-31T07:28:01.024Z,67.5
2017-08-31T07:28:41.616Z,67.44
2017-08-31T07:29:22.210Z,67.54
2017-08-31T07:30:02.808Z,67.14
2017-08-31T07:30:43.380Z,66.86
2017-08-31T07:31:23.996Z,66.08
2017-08-31T07:32:04.548Z,65.63
2017-08-31T07:32:45.136Z,65.24
2017-08-31T07:33:25.722Z,64.75
2017-08-31T07:34:06.353Z,65.43
2017-08-31T07:34:46.932Z,65.05
2017-08-31T07:35:27.518Z,65.27
2017-08-31T07:36:08.091Z,64.98
2017-08-31T07:36:48.678Z,65.37
2017-08-31T07:37:29.263Z,64.69
2017-08-31T07:38:09.841Z,64.11
2017-08-31T07:38:50.436Z,64.11
2017-08-31T07:39:31.029Z,63.52
2017-08-31T07:40:11.625Z,63.13
2017-08-31T07:40:52.240Z,62.84
2017-08-31T07:41:32.822Z,62.38
2017-08-31T07:42:13.406Z,62.58
2017-08-31T07:42:53.987Z,62.68
2017-08-31T07:43:34.567Z,61.97
2017-08-31T07:44:15.157Z,62.55
2017-08-31T07:44:55.738Z,62.58
2017-08-31T07:45:36.368Z,62.38
2017-08-31T07:46:16.954Z,61.8
2017-08-31T07:46:57.558Z,61.8
2017-08-31T07:47:38.155Z,62.19
2017-08-31T07:48:18.732Z,62.87
2017-08-31T07:48:59.321Z,62
2017-08-31T07:49:39.930Z,62
2017-08-31T07:50:20.524Z,62.1
2017-08-31T07:51:01.103Z,62.1
2017-08-31T07:51:41.689Z,62.38
2017-08-31T07:52:22.288Z,61.71
2017-08-31T07:53:02.864Z,61.32
2017-08-31T07:53:43.461Z,61.15
2017-08-31T07:54:24.096Z,61.35
2017-08-31T07:55:04.650Z,60.77
2017-08-31T07:55:45.232Z,60.86
2017-08-31T07:56:25.864Z,60.47
2017-08-31T07:57:06.438Z,60.57
2017-08-31T07:57:47.041Z,61.38
2017-08-31T07:58:27.653Z,60.38
2017-08-31T07:59:08.242Z,60.11
2017-08-31T07:59:48.814Z,60.7
2017-08-31T08:00:29.410Z,60.79
2017-08-31T08:01:10.024Z,60.5
2017-08-31T08:01:50.593Z,60.31
2017-08-31T08:02:31.163Z,60.79
2017-08-31T08:03:11.743Z,60.89
2017-08-31T08:03:52.332Z,60.5
2017-08-31T08:04:32.923Z,60.41
2017-08-31T08:05:13.503Z,60.41
2017-08-31T08:05:54.096Z,60.5
2017-08-31T08:06:34.676Z,60.41
2017-08-31T08:07:15.283Z,59.63
2017-08-31T08:07:55.877Z,59.72
2017-08-31T08:08:36.484Z,59.72
2017-08-31T08:09:17.077Z,59.72
2017-08-31T08:09:57.662Z,59.82
2017-08-31T08:10:38.247Z,59.23
2017-08-31T08:11:18.862Z,60.02
2017-08-31T08:11:59.537Z,60.5
2017-08-31T08:12:40.142Z,61.28
2017-08-31T08:13:20.740Z,60.79
2017-08-31T08:14:01.398Z,61.47
2017-08-31T08:14:41.997Z,61.08
2017-08-31T08:15:22.583Z,60.41
2017-08-31T08:16:03.156Z,60.21
2017-08-31T08:16:43.750Z,59.53
2017-08-31T08:17:24.329Z,59.72
2017-08-31T08:18:04.931Z,59.43
2017-08-31T08:18:45.503Z,59.43
2017-08-31T08:19:26.092Z,59.69
2017-08-31T08:20:06.677Z,59.79
2017-08-31T08:20:47.294Z,59.69
2017-08-31T08:21:27.865Z,59.99
2017-08-31T08:22:08.442Z,61.54
2017-08-31T08:22:49.045Z,61.15
2017-08-31T08:23:29.625Z,59.79
2017-08-31T08:24:10.203Z,59.89
2017-08-31T08:24:50.793Z,59.79
2017-08-31T08:25:31.399Z,59.99
2017-08-31T08:26:11.979Z,60.57
2017-08-31T08:26:52.535Z,61.15
2017-08-31T08:27:33.127Z,61.93
2017-08-31T08:28:13.717Z,62.13
2017-08-31T08:28:54.305Z,62.03
2017-08-31T08:29:34.882Z,61.74
2017-08-31T08:30:15.469Z,61.08
2017-08-31T08:30:56.049Z,61.57
2017-08-31T08:31:36.620Z,61.28
2017-08-31T08:32:17.227Z,61.38
2017-08-31T08:32:57.827Z,60.11
2017-08-31T08:33:38.391Z,59.72
2017-08-31T08:34:18.978Z,59.72
2017-08-31T08:34:59.565Z,60.21
2017-08-31T08:35:40.163Z,61.47
2017-08-31T08:36:20.751Z,61.47
2017-08-31T08:37:01.337Z,60.5
2017-08-31T08:37:41.926Z,59.82
2017-08-31T08:38:22.543Z,59.23
2017-08-31T08:39:03.125Z,59.21
2017-08-31T08:39:43.721Z,59.41
2017-08-31T08:40:24.318Z,60.18
2017-08-31T08:41:04.951Z,61.15
2017-08-31T08:41:45.617Z,60.86
2017-08-31T08:42:26.236Z,61.54
2017-08-31T08:43:06.796Z,61.74
2017-08-31T08:43:47.378Z,61.44
2017-08-31T08:44:27.967Z,60.86